Time;durP1;ratioP1;P1;durP2;ratioP2;P2;SDS_P1;SDS_P2;PMS_P1;PMS_P2;Temp;Humidity;BMP_temperature;BMP_pressure;BME280_temperature;BME280_humidity;BME280_pressure;Samples;Min_cycle;Max_cycle;Signal;HPM_P1;HPM_P2
2024/03/14 00:01:06;;;;;;;84.30;51.00;;;;;;;7.21;82.51;98876.58;226568;1275;23775;-83
2024/03/14 00:06:10;;;;;;;85.80;51.90;;;;;;;7.21;82.60;98881.57;226745;1272;22528;-82
2024/03/14 00:11:12;;;;;;;85.40;50.00;;;;;;;7.22;82.85;98882.66;226588;1275;22541;-83
2024/03/14 00:16:16;;;;;;;82.60;45.80;;;;;;;7.22;82.69;98882.10;226552;1274;25069;-82
2024/03/14 00:21:18;;;;;;;95.00;55.90;;;;;;;7.21;82.72;98875.23;226486;1275;22562;-82
2024/03/14 00:26:20;;;;;;;119.20;69.30;;;;;;;7.17;82.62;98864.25;226467;1275;22543;-83
2024/03/14 00:31:23;;;;;;;113.90;65.80;;;;;;;7.13;82.88;98862.08;226478;1275;22529;-83
2024/03/14 00:36:25;;;;;;;123.80;71.70;;;;;;;7.10;83.07;98864.56;226691;1275;22550;-83
2024/03/14 00:41:28;;;;;;;129.10;76.40;;;;;;;7.10;83.25;98858.58;226457;1275;22552;-84
2024/03/14 00:46:31;;;;;;;124.90;74.30;;;;;;;7.07;82.90;98854.60;226477;1275;22521;-82
2024/03/14 00:51:34;;;;;;;137.00;81.30;;;;;;;7.08;83.27;98851.74;226664;1272;25281;-84
2024/03/14 00:56:36;;;;;;;143.00;81.00;;;;;;;7.07;83.06;98847.48;226563;1275;22537;-81
2024/03/14 01:01:42;;;;;;;142.40;84.90;;;;;;;7.04;83.15;98854.10;226675;1275;22692;-81
2024/03/14 01:06:44;;;;;;;143.40;86.30;;;;;;;7.02;83.40;98846.38;226608;1275;22568;-82
2024/03/14 01:11:47;;;;;;;162.20;90.50;;;;;;;7.00;83.45;98840.86;226657;1272;23588;-80
2024/03/14 01:16:50;;;;;;;147.20;80.90;;;;;;;7.01;83.75;98840.73;226646;1275;22562;-82
2024/03/14 01:21:53;;;;;;;105.00;62.70;;;;;;;6.97;83.49;98831.41;226684;1272;22542;-81
2024/03/14 01:26:57;;;;;;;102.80;60.70;;;;;;;6.95;83.92;98834.58;226535;1276;25449;-82
2024/03/14 01:31:59;;;;;;;94.10;57.70;;;;;;;6.95;84.23;98836.86;226555;1276;25280;-83
2024/03/14 01:37:06;;;;;;;103.20;58.50;;;;;;;6.96;84.02;98845.37;226702;1273;22537;-84
2024/03/14 01:42:12;;;;;;;83.00;47.50;;;;;;;6.93;83.71;98843.40;226679;1275;22538;-82
2024/03/14 01:47:14;;;;;;;83.70;48.60;;;;;;;6.89;83.65;98841.19;226539;1275;22576;-81
2024/03/14 01:52:20;;;;;;;86.30;49.20;;;;;;;6.85;83.88;98835.34;226592;1275;22542;-83
2024/03/14 01:57:25;;;;;;;99.50;56.00;;;;;;;6.78;83.50;98825.44;226608;1276;22532;-82
2024/03/14 02:02:28;;;;;;;95.10;55.50;;;;;;;6.75;84.26;98832.05;226635;1275;22531;-83
2024/03/14 02:07:35;;;;;;;98.10;57.10;;;;;;;6.72;83.99;98830.36;226608;1275;23096;-82
2024/03/14 02:12:38;;;;;;;105.40;57.90;;;;;;;6.71;84.27;98829.61;226548;1275;24228;-82
2024/03/14 02:17:40;;;;;;;111.00;63.60;;;;;;;6.69;84.04;98820.15;226523;1276;23084;-83
2024/03/14 02:22:44;;;;;;;111.30;63.40;;;;;;;6.63;84.03;98823.99;226519;1275;22560;-82
2024/03/14 02:27:46;;;;;;;110.30;66.00;;;;;;;6.59;84.52;98829.42;226646;1272;22572;-82
2024/03/14 02:32:48;;;;;;;101.70;58.70;;;;;;;6.58;84.26;98830.64;226679;1276;22534;-84
2024/03/14 02:37:52;;;;;;;115.80;66.50;;;;;;;6.56;84.52;98830.83;226278;1276;214959;-83
2024/03/14 02:42:55;;;;;;;113.10;64.20;;;;;;;6.54;84.59;98825.33;226521;1276;22609;-83
2024/03/14 02:47:58;;;;;;;107.60;61.50;;;;;;;6.52;84.48;98819.10;226655;1276;25281;-82
2024/03/14 02:53:01;;;;;;;109.50;62.40;;;;;;;6.52;84.49;98825.03;226655;1276;22547;-84
2024/03/14 02:58:03;;;;;;;102.30;59.10;;;;;;;6.51;84.57;98815.81;226630;1276;22534;-83
2024/03/14 03:03:06;;;;;;;114.60;65.80;;;;;;;6.47;84.78;98813.77;226536;1276;22634;-82
2024/03/14 03:08:09;;;;;;;112.70;64.90;;;;;;;6.45;84.36;98812.67;226515;1270;22532;-83
2024/03/14 03:13:11;;;;;;;118.30;65.50;;;;;;;6.41;84.57;98809.54;226533;1270;22468;-83
2024/03/14 03:18:13;;;;;;;103.10;60.10;;;;;;;6.40;84.97;98815.25;226504;1276;22560;-82
2024/03/14 03:23:17;;;;;;;102.50;58.00;;;;;;;6.37;85.04;98813.48;226751;1275;22650;-83
2024/03/14 03:28:19;;;;;;;105.10;62.30;;;;;;;6.34;84.63;98809.70;226639;1273;22533;-84
2024/03/14 03:33:28;;;;;;;103.20;60.90;;;;;;;6.35;85.10;98802.46;226611;1270;22544;-83
2024/03/14 03:38:40;;;;;;;104.80;60.50;;;;;;;6.36;85.20;98810.21;226691;1273;22533;-83
2024/03/14 03:43:43;;;;;;;105.00;60.20;;;;;;;6.38;85.18;98819.61;226649;1273;22540;-84
2024/03/14 03:48:45;;;;;;;109.40;61.90;;;;;;;6.44;85.18;98813.39;226644;1273;23175;-83
2024/03/14 03:53:47;;;;;;;95.00;56.30;;;;;;;6.45;85.15;98814.71;226598;1275;22584;-83
2024/03/14 03:58:50;;;;;;;99.20;59.30;;;;;;;6.46;85.16;98814.64;226630;1275;24891;-82
2024/03/14 04:03:53;;;;;;;100.30;59.20;;;;;;;6.42;85.03;98817.13;226694;1273;24228;-84
2024/03/14 04:08:55;;;;;;;104.70;60.10;;;;;;;6.40;84.94;98825.90;226600;1275;22607;-83
2024/03/14 04:13:58;;;;;;;107.80;60.80;;;;;;;6.38;85.25;98833.09;226632;1275;22520;-84
2024/03/14 04:19:01;;;;;;;103.00;59.80;;;;;;;6.37;85.27;98830.90;226591;1275;25328;-82
2024/03/14 04:24:04;;;;;;;100.50;58.90;;;;;;;6.37;85.38;98822.23;226505;1275;22542;-83
2024/03/14 04:29:06;;;;;;;93.80;54.90;;;;;;;6.34;85.49;98820.40;226569;1275;22550;-83
2024/03/14 04:34:09;;;;;;;95.00;54.30;;;;;;;6.32;84.93;98825.02;226648;1275;24206;-83
2024/03/14 04:39:13;;;;;;;92.90;56.20;;;;;;;6.29;85.06;98839.10;226703;1275;22529;-84
2024/03/14 04:44:16;;;;;;;105.60;58.70;;;;;;;6.23;84.94;98841.52;226656;1271;24237;-83
2024/03/14 04:49:19;;;;;;;100.10;56.40;;;;;;;6.20;84.75;98845.17;226663;1273;22556;-83
2024/03/14 04:54:22;;;;;;;100.80;57.10;;;;;;;6.18;85.39;98839.39;226707;1275;22538;-83
2024/03/14 04:59:24;;;;;;;102.10;58.40;;;;;;;6.17;85.01;98840.24;226625;1273;24203;-82
2024/03/14 05:04:26;;;;;;;98.80;56.40;;;;;;;6.17;85.42;98845.68;226622;1270;22931;-83
2024/03/14 05:09:28;;;;;;;106.70;59.70;;;;;;;6.16;85.28;98843.95;226577;1273;25415;-82
2024/03/14 05:14:31;;;;;;;111.20;64.30;;;;;;;6.16;85.46;98846.77;226594;1270;22541;-83
2024/03/14 05:19:33;;;;;;;118.90;64.00;;;;;;;6.18;85.75;98849.95;226643;1275;25501;-83
2024/03/14 05:24:36;;;;;;;105.90;61.80;;;;;;;6.21;85.38;98858.34;226582;1275;22553;-83
2024/03/14 05:29:38;;;;;;;98.90;57.50;;;;;;;6.22;85.31;98857.52;226407;1276;25281;-84
2024/03/14 05:34:40;;;;;;;113.30;64.90;;;;;;;6.23;85.61;98857.45;226632;1273;22568;-82
2024/03/14 05:39:42;;;;;;;111.20;63.40;;;;;;;6.29;85.87;98856.45;226650;1276;22544;-83
2024/03/14 05:44:49;;;;;;;111.00;63.10;;;;;;;6.34;85.86;98856.77;226622;1270;22541;-82
2024/03/14 05:49:51;;;;;;;109.80;64.50;;;;;;;6.40;85.81;98861.23;226644;1271;22533;-83
2024/03/14 05:54:53;;;;;;;109.40;64.90;;;;;;;6.45;85.96;98864.54;226624;1273;22535;-83
2024/03/14 05:59:55;;;;;;;106.10;62.50;;;;;;;6.47;85.19;98866.65;226461;1276;25428;-83
2024/03/14 06:04:57;;;;;;;99.80;60.10;;;;;;;6.52;85.27;98873.45;226759;1273;24204;-83
2024/03/14 06:09:59;;;;;;;95.80;57.70;;;;;;;6.57;85.30;98865.39;226605;1271;22626;-83
2024/03/14 06:15:03;;;;;;;105.90;63.20;;;;;;;6.62;85.55;98865.77;226638;1275;22537;-84
2024/03/14 06:20:07;;;;;;;114.50;69.30;;;;;;;6.68;85.48;98867.58;226680;1273;22645;-83
2024/03/14 06:25:11;;;;;;;109.60;65.40;;;;;;;6.75;85.07;98871.70;226692;1269;22552;-84
2024/03/14 06:30:13;;;;;;;115.90;73.10;;;;;;;6.85;85.26;98868.98;226638;1275;22616;-83
2024/03/14 06:35:21;;;;;;;110.20;70.70;;;;;;;6.97;85.16;98871.70;226732;1269;22533;-83
2024/03/14 06:40:23;;;;;;;119.20;73.10;;;;;;;7.12;85.39;98874.99;226682;1269;22557;-84
2024/03/14 06:45:26;;;;;;;105.00;64.10;;;;;;;7.30;85.63;98882.85;226629;1269;25290;-83
2024/03/14 06:50:31;;;;;;;97.60;57.80;;;;;;;7.45;85.05;98880.83;226570;1272;22583;-82
2024/03/14 06:55:34;;;;;;;94.90;56.00;;;;;;;7.60;84.88;98877.99;226217;1253;22549;-85
2024/03/14 07:00:40;;;;;;;103.30;62.60;;;;;;;7.71;84.65;98879.02;226577;1270;22795;-83
2024/03/14 07:05:43;;;;;;;92.40;56.20;;;;;;;7.84;84.66;98880.57;226543;1256;25372;-82
2024/03/14 07:10:49;;;;;;;89.00;54.50;;;;;;;8.01;84.70;98882.58;226414;1269;22541;-83
2024/03/14 07:15:51;;;;;;;88.80;55.50;;;;;;;8.21;84.89;98887.44;226712;1257;23075;-83
2024/03/14 07:20:53;;;;;;;93.70;57.60;;;;;;;8.43;84.56;98889.80;226687;1269;22529;-83
2024/03/14 07:25:56;;;;;;;83.10;54.10;;;;;;;8.68;84.34;98891.08;226639;1269;22662;-82
2024/03/14 07:30:58;;;;;;;91.30;55.00;;;;;;;8.89;83.64;98890.30;226479;1269;23023;-82
2024/03/14 07:36:01;;;;;;;86.90;53.90;;;;;;;9.08;83.49;98895.60;226498;1261;22682;-81
2024/03/14 07:41:03;;;;;;;89.00;53.70;;;;;;;9.26;83.11;98896.29;226430;1265;22572;-81
2024/03/14 07:46:07;;;;;;;88.10;53.80;;;;;;;9.43;83.00;98893.61;226457;1269;22542;-82
2024/03/14 07:51:09;;;;;;;84.70;54.00;;;;;;;9.62;82.80;98898.05;226124;1269;22697;-82
2024/03/14 07:56:13;;;;;;;79.40;52.60;;;;;;;9.82;82.40;98895.36;226059;1261;25201;-81
2024/03/14 08:01:16;;;;;;;78.60;50.90;;;;;;;10.06;82.17;98895.02;226053;1253;22608;-81
2024/03/14 08:06:18;;;;;;;79.20;52.70;;;;;;;10.26;81.74;98893.34;226019;1273;22539;-81
2024/03/14 08:11:22;;;;;;;81.20;51.10;;;;;;;10.48;81.62;98886.00;226298;1272;22537;-81
2024/03/14 08:16:25;;;;;;;68.60;47.30;;;;;;;10.65;80.78;98888.38;226382;1264;22665;-81
2024/03/14 08:21:29;;;;;;;70.80;45.20;;;;;;;10.78;80.56;98890.39;226326;1269;24251;-81
2024/03/14 08:26:33;;;;;;;62.30;43.30;;;;;;;10.99;79.78;98894.91;226473;1261;22548;-81
2024/03/14 08:31:36;;;;;;;59.80;41.30;;;;;;;11.07;79.48;98888.81;226397;1269;22537;-80
2024/03/14 08:36:41;;;;;;;57.60;38.10;;;;;;;11.20;78.46;98893.63;226265;1269;22926;-81
2024/03/14 08:41:44;;;;;;;65.00;44.60;;;;;;;11.18;77.58;98895.39;225998;1269;22572;-82
2024/03/14 08:46:47;;;;;;;66.90;44.90;;;;;;;11.22;77.62;98899.02;226091;1256;22542;-83
2024/03/14 08:51:50;;;;;;;69.10;45.90;;;;;;;11.37;77.77;98901.88;226353;1275;23644;-82
2024/03/14 08:56:52;;;;;;;66.10;44.90;;;;;;;11.55;77.70;98902.38;226244;1275;22538;-81
2024/03/14 09:01:55;;;;;;;67.60;44.10;;;;;;;11.50;76.89;98907.41;226128;1269;22532;-81
2024/03/14 09:06:57;;;;;;;69.10;44.50;;;;;;;11.53;77.22;98900.52;225963;1269;22603;-80
2024/03/14 09:12:09;;;;;;;60.40;40.50;;;;;;;11.61;77.04;98900.63;226044;1269;22519;-81
2024/03/14 09:17:14;;;;;;;49.30;33.80;;;;;;;11.76;76.76;98898.02;226176;1268;22828;-81
2024/03/14 09:22:17;;;;;;;48.70;32.30;;;;;;;11.89;75.83;98898.13;226337;1256;22662;-80
2024/03/14 09:27:19;;;;;;;36.70;26.70;;;;;;;12.06;75.51;98903.41;226286;1269;22542;-81
2024/03/14 09:32:23;;;;;;;33.10;24.40;;;;;;;12.18;74.10;98901.29;226324;1255;22575;-81
2024/03/14 09:37:25;;;;;;;33.10;23.20;;;;;;;12.10;72.20;98898.31;226589;1269;23285;-80
2024/03/14 09:42:27;;;;;;;31.80;22.40;;;;;;;12.09;72.02;98897.52;226487;1270;22529;-80
2024/03/14 09:47:40;;;;;;;28.40;20.60;;;;;;;12.09;71.04;98898.42;226435;1261;22530;-82
2024/03/14 09:52:43;;;;;;;27.00;19.70;;;;;;;12.05;70.28;98896.67;226158;1271;22564;-81
2024/03/14 09:57:51;;;;;;;27.20;19.80;;;;;;;12.17;70.43;98897.74;226423;1262;22536;-81
2024/03/14 10:02:58;;;;;;;28.10;19.40;;;;;;;12.33;70.16;98885.64;226303;1266;22572;-81
2024/03/14 10:08:02;;;;;;;27.60;19.70;;;;;;;12.43;69.44;98881.48;226385;1253;22565;-81
2024/03/14 10:13:04;;;;;;;24.10;17.90;;;;;;;12.61;69.40;98878.21;226454;1253;22545;-81
2024/03/14 10:18:12;;;;;;;27.70;19.70;;;;;;;12.73;68.79;98875.28;226540;1269;23399;-81
2024/03/14 10:23:20;;;;;;;23.80;17.40;;;;;;;12.89;68.56;98880.27;226509;1273;22546;-82
2024/03/14 10:28:28;;;;;;;27.60;18.90;;;;;;;12.94;67.52;98876.67;226161;1263;22568;-80
2024/03/14 10:33:32;;;;;;;24.10;17.90;;;;;;;13.02;66.77;98869.77;226535;1269;22595;-81
2024/03/14 10:38:36;;;;;;;18.90;14.90;;;;;;;13.17;66.60;98866.90;226482;1253;22561;-80
2024/03/14 10:43:43;;;;;;;21.20;14.70;;;;;;;13.37;66.10;98864.16;226395;1253;25268;-81
2024/03/14 10:48:47;;;;;;;16.70;13.60;;;;;;;13.60;65.02;98865.83;226438;1253;22541;-80
2024/03/14 10:54:59;;;;;;;17.50;14.50;;;;;;;13.77;64.78;98869.54;226838;1259;22727;31
2024/03/14 11:06:54;;;;;;;17.80;14.60;;;;;;;14.00;63.29;98868.88;226060;1267;22595;-86
2024/03/14 11:12:47;;;;;;;19.80;14.40;;;;;;;13.85;62.28;98869.94;224114;1294;22577;-80
2024/03/14 11:17:51;;;;;;;15.30;13.60;;;;;;;13.62;62.49;98871.34;223774;1273;22615;-83
2024/03/14 11:22:57;;;;;;;16.00;13.10;;;;;;;13.38;62.40;98870.90;223792;1290;22592;-86
2024/03/14 11:28:01;;;;;;;16.80;12.70;;;;;;;13.18;62.73;98869.36;223813;1280;22616;-87
2024/03/14 11:33:08;;;;;;;17.00;12.80;;;;;;;13.06;62.69;98867.56;223680;1294;22559;-87
2024/03/14 11:38:23;;;;;;;15.80;12.20;;;;;;;12.97;62.56;98865.27;223804;1292;22600;-89
2024/03/14 11:43:27;;;;;;;16.90;12.80;;;;;;;12.91;62.42;98858.24;224093;1291;22609;-89
2024/03/14 11:48:30;;;;;;;13.60;11.60;;;;;;;12.97;62.46;98859.06;223838;1279;22847;-79
2024/03/14 11:53:33;;;;;;;15.80;12.60;;;;;;;13.07;62.29;98851.48;223791;1286;22603;-81
2024/03/14 11:58:38;;;;;;;13.10;11.60;;;;;;;13.19;62.05;98849.65;223545;1273;22581;-81
2024/03/14 12:03:42;;;;;;;15.00;12.30;;;;;;;13.33;61.69;98847.75;223365;1272;22563;-81
2024/03/14 12:08:44;;;;;;;15.40;11.70;;;;;;;13.54;61.44;98841.41;223633;1272;22570;-81
2024/03/14 12:13:52;;;;;;;16.80;11.20;;;;;;;13.81;61.41;98835.25;223574;1272;22571;-81
2024/03/14 12:18:57;;;;;;;15.60;12.40;;;;;;;13.96;60.46;98836.08;223380;1286;22560;-81
2024/03/14 12:24:00;;;;;;;14.70;12.30;;;;;;;13.97;60.30;98831.77;223619;1282;22613;-81
2024/03/14 12:29:03;;;;;;;15.80;12.80;;;;;;;14.00;60.13;98831.23;223389;1271;22562;-82
2024/03/14 12:34:06;;;;;;;15.40;13.10;;;;;;;13.99;59.76;98827.48;223519;1276;24020;-82
2024/03/14 12:39:09;;;;;;;14.70;12.10;;;;;;;13.94;59.96;98819.83;223444;1276;22595;-81
2024/03/14 12:44:12;;;;;;;15.40;12.00;;;;;;;13.89;60.03;98818.61;223213;1288;22560;-83
2024/03/14 12:49:15;;;;;;;13.70;11.60;;;;;;;13.76;59.65;98817.70;223293;1286;25351;-83
2024/03/14 12:54:18;;;;;;;15.20;11.90;;;;;;;13.58;59.44;98815.52;223399;1279;22599;-83
2024/03/14 12:59:20;;;;;;;14.90;11.50;;;;;;;13.41;59.49;98816.34;223212;1282;24421;-83
2024/03/14 13:04:26;;;;;;;13.00;10.90;;;;;;;13.29;59.55;98814.64;223116;1287;22625;-76
2024/03/14 13:09:28;;;;;;;12.70;10.70;;;;;;;13.19;59.69;98810.15;222839;1279;23044;-85
2024/03/14 13:14:31;;;;;;;13.40;11.30;;;;;;;13.12;59.94;98807.10;223016;1286;25439;-85
2024/03/14 13:19:35;;;;;;;14.70;12.20;;;;;;;13.05;59.85;98803.83;222800;1281;22639;-84
2024/03/14 13:24:38;;;;;;;13.70;10.50;;;;;;;13.00;60.30;98800.08;223132;1279;22958;-84
2024/03/14 13:29:40;;;;;;;15.10;11.20;;;;;;;12.92;59.89;98802.42;223426;1287;22594;-84
2024/03/14 13:34:43;;;;;;;14.40;11.40;;;;;;;12.83;59.81;98801.52;223285;1287;22562;-85
2024/03/14 13:39:47;;;;;;;15.10;11.50;;;;;;;12.80;59.84;98795.46;223285;1272;22609;-85
2024/03/14 13:44:51;;;;;;;15.90;11.30;;;;;;;12.87;60.16;98790.34;223281;1276;22570;-83
2024/03/14 13:49:53;;;;;;;15.20;11.90;;;;;;;13.01;60.10;98787.26;223555;1279;22562;-84
2024/03/14 13:54:57;;;;;;;13.20;11.60;;;;;;;13.19;59.98;98786.99;223374;1287;22611;-84
2024/03/14 14:00:10;;;;;;;14.30;11.90;;;;;;;13.41;59.57;98785.77;223546;1286;22556;-85
2024/03/14 14:05:14;;;;;;;14.80;11.10;;;;;;;13.59;59.16;98782.44;223429;1286;22588;-80
2024/03/14 14:17:29;;;;;;;15.10;11.60;;;;;;;13.65;58.35;98776.02;219288;1305;545378;-81
2024/03/14 14:27:22;;;;;;;17.80;13.20;;;;;;;13.46;57.78;98771.10;219470;1289;544974;-77
2024/03/14 14:32:24;;;;;;;17.20;13.60;;;;;;;13.29;58.12;98768.80;224297;1280;22579;-79
2024/03/14 14:37:26;;;;;;;17.00;13.30;;;;;;;13.20;57.90;98764.88;224167;1267;154777;-77
2024/03/14 14:42:29;;;;;;;20.20;16.10;;;;;;;12.96;57.87;98760.89;224681;1272;23276;-78
2024/03/14 14:47:32;;;;;;;19.60;15.60;;;;;;;12.75;58.08;98761.58;224593;1263;22550;-82
2024/03/14 14:52:36;;;;;;;19.50;14.50;;;;;;;12.56;58.83;98756.97;224630;1263;22535;-82
2024/03/14 14:57:41;;;;;;;15.00;12.20;;;;;;;12.37;58.87;98751.19;226088;1269;23025;-81
2024/03/14 15:02:45;;;;;;;16.40;12.80;;;;;;;12.19;58.87;98751.74;225985;1269;22565;-80
2024/03/14 15:07:47;;;;;;;17.90;13.80;;;;;;;12.05;59.03;98753.08;225839;1270;22544;-81
2024/03/14 15:12:50;;;;;;;18.30;14.00;;;;;;;11.88;59.23;98751.17;225971;1269;23020;-81
2024/03/14 15:18:03;;;;;;;18.30;13.50;;;;;;;11.71;59.56;98748.86;226022;1275;22557;-81
2024/03/14 15:23:07;;;;;;;17.70;14.20;;;;;;;11.58;59.73;98751.11;226359;1272;22543;-82
2024/03/14 15:28:09;;;;;;;17.70;14.10;;;;;;;11.46;59.90;98752.63;226655;1275;22702;-81
2024/03/14 15:33:11;;;;;;;20.10;13.70;;;;;;;11.35;60.08;98750.39;226897;1272;22810;-81
2024/03/14 15:38:14;;;;;;;17.80;14.30;;;;;;;11.24;60.29;98751.98;226821;1272;22542;-80
2024/03/14 15:43:16;;;;;;;18.50;13.00;;;;;;;11.14;60.42;98753.59;226847;1272;22645;-81
2024/03/14 15:48:21;;;;;;;18.20;13.50;;;;;;;11.04;60.70;98754.48;226770;1273;22529;-80
2024/03/14 15:53:23;;;;;;;16.10;12.90;;;;;;;10.94;60.80;98749.64;226774;1269;24500;-80
2024/03/14 15:58:29;;;;;;;16.80;13.10;;;;;;;10.83;60.83;98750.66;226771;1275;22551;-80
2024/03/14 16:03:33;;;;;;;22.10;13.90;;;;;;;10.70;61.05;98750.26;226732;1275;22670;-82
2024/03/14 16:08:41;;;;;;;19.00;14.60;;;;;;;10.58;61.08;98754.56;226687;1273;22628;-82
2024/03/14 16:13:57;;;;;;;;;;;;;;;10.44;61.40;98755.15;226850;1275;24890;-81
2024/03/14 16:18:59;;;;;;;21.00;15.40;;;;;;;10.27;61.67;98751.48;226764;1273;22651;-81
2024/03/14 16:24:06;;;;;;;25.10;17.70;;;;;;;10.09;62.46;98757.05;226771;1272;27211;-81
2024/03/14 16:29:09;;;;;;;23.70;16.30;;;;;;;9.92;63.29;98759.31;226753;1272;22560;-81
2024/03/14 16:34:11;;;;;;;27.40;16.90;;;;;;;9.76;64.02;98760.50;226927;1275;22541;-81
2024/03/14 16:39:18;;;;;;;27.90;17.60;;;;;;;9.59;64.53;98762.58;226836;1275;22455;-81
2024/03/14 16:44:22;;;;;;;23.60;16.40;;;;;;;9.40;64.70;98765.45;226712;1275;22544;-81
2024/03/14 16:49:24;;;;;;;20.60;15.00;;;;;;;9.25;65.09;98771.41;226846;1272;25411;-81
2024/03/14 16:54:31;;;;;;;24.30;15.30;;;;;;;9.09;65.47;98770.04;226903;1272;25418;-79
2024/03/14 16:59:35;;;;;;;28.00;17.80;;;;;;;8.92;65.46;98771.02;226711;1272;22551;-80
2024/03/14 17:04:39;;;;;;;31.30;19.50;;;;;;;8.72;66.01;98774.92;226854;1269;22521;-81
2024/03/14 17:09:41;;;;;;;32.00;21.10;;;;;;;8.49;66.74;98775.95;226779;1272;22533;-81
2024/03/14 17:14:43;;;;;;;28.70;19.40;;;;;;;8.25;67.37;98777.09;226773;1269;22605;-81
2024/03/14 17:19:45;;;;;;;31.00;18.80;;;;;;;8.03;67.74;98779.95;226951;1275;22530;-81
2024/03/14 17:24:47;;;;;;;31.70;21.00;;;;;;;7.85;68.06;98780.91;226735;1273;22536;-80
2024/03/14 17:29:53;;;;;;;30.90;20.70;;;;;;;7.69;68.34;98788.47;226732;1275;22530;-80
2024/03/14 17:34:55;;;;;;;40.20;25.50;;;;;;;7.54;68.64;98792.23;226778;1269;22552;-81
2024/03/14 17:40:03;;;;;;;47.90;26.60;;;;;;;7.40;68.82;98798.14;226985;1267;22550;-80
2024/03/14 17:45:06;;;;;;;53.30;30.00;;;;;;;7.27;69.52;98795.01;226842;1275;22543;-79
2024/03/14 17:50:11;;;;;;;47.60;28.20;;;;;;;7.13;69.69;98793.41;226853;1269;22595;-81
2024/03/14 17:55:13;;;;;;;48.00;27.30;;;;;;;6.98;69.96;98793.79;226908;1256;22584;-81
2024/03/14 18:00:17;;;;;;;43.80;26.80;;;;;;;6.85;70.25;98794.05;226861;1272;22622;-80
2024/03/14 18:05:20;;;;;;;42.00;27.40;;;;;;;6.70;70.99;98798.87;226784;1269;22526;-80
2024/03/14 18:10:22;;;;;;;53.40;31.80;;;;;;;6.59;71.44;98796.06;226824;1267;24238;-81
2024/03/14 18:15:24;;;;;;;54.10;33.60;;;;;;;6.49;71.66;98795.37;226666;1275;25406;-82
2024/03/14 18:20:26;;;;;;;64.00;36.70;;;;;;;6.40;72.07;98797.21;226891;1275;22900;-80
2024/03/14 18:25:29;;;;;;;46.70;28.20;;;;;;;6.30;72.06;98796.50;226660;1275;22544;-80
2024/03/14 18:30:32;;;;;;;53.00;33.00;;;;;;;6.22;73.43;98794.02;226731;1272;22541;-80
2024/03/14 18:35:36;;;;;;;51.60;33.90;;;;;;;6.14;73.50;98801.54;226844;1269;22529;-82
2024/03/14 18:40:40;;;;;;;52.50;32.90;;;;;;;6.06;73.80;98799.94;226851;1275;24222;-81
2024/03/14 18:45:44;;;;;;;50.80;33.00;;;;;;;6.00;74.19;98806.45;226685;1272;23017;-81
2024/03/14 18:50:46;;;;;;;50.80;32.70;;;;;;;5.95;74.81;98803.16;226646;1275;23001;-79
2024/03/14 18:55:49;;;;;;;63.20;38.10;;;;;;;5.90;75.40;98807.65;226847;1272;22515;-80
2024/03/14 19:00:50;;;;;;;65.00;39.30;;;;;;;5.81;75.32;98811.88;226863;1275;25452;-80
2024/03/14 19:05:53;;;;;;;68.30;41.30;;;;;;;5.73;75.60;98808.59;226829;1272;23098;-80
2024/03/14 19:10:55;;;;;;;71.90;41.50;;;;;;;5.64;76.05;98805.45;226717;1275;22544;-80
2024/03/14 19:15:57;;;;;;;65.20;38.10;;;;;;;5.59;76.34;98803.51;226613;1275;22663;-80
2024/03/14 19:21:00;;;;;;;80.30;46.30;;;;;;;5.57;77.04;98806.51;226805;1272;22547;-80
2024/03/14 19:26:03;;;;;;;79.60;45.30;;;;;;;5.53;76.92;98805.36;226717;1270;22728;-80
2024/03/14 19:31:06;;;;;;;90.50;48.70;;;;;;;5.49;76.99;98799.67;226720;1266;22541;-81
2024/03/14 19:36:08;;;;;;;90.70;49.00;;;;;;;5.41;77.33;98801.34;226683;1269;22566;-80
2024/03/14 19:41:11;;;;;;;79.60;45.00;;;;;;;5.32;77.80;98804.72;226713;1272;23274;-81
2024/03/14 19:46:13;;;;;;;88.70;48.60;;;;;;;5.27;77.98;98804.67;226556;1275;22524;-81
2024/03/14 19:51:16;;;;;;;88.60;46.80;;;;;;;5.19;78.01;98804.09;226696;1275;22536;-80
2024/03/14 19:56:19;;;;;;;80.40;44.50;;;;;;;5.12;78.01;98805.66;226833;1269;25455;-80
2024/03/14 20:01:22;;;;;;;81.60;43.90;;;;;;;5.04;78.16;98804.73;226780;1272;25325;-80
2024/03/14 20:06:24;;;;;;;83.40;44.80;;;;;;;4.95;78.40;98799.48;226717;1272;22571;-80
2024/03/14 20:11:29;;;;;;;85.60;43.70;;;;;;;4.86;78.64;98795.21;226803;1272;22540;-78
2024/03/14 20:16:31;;;;;;;81.90;44.10;;;;;;;4.78;79.03;98790.36;226710;1274;22586;-79
2024/03/14 20:21:33;;;;;;;71.00;38.30;;;;;;;4.73;79.05;98788.80;226803;1272;22657;-79
2024/03/14 20:26:36;;;;;;;76.90;41.50;;;;;;;4.69;79.60;98786.77;226702;1272;22560;-80
2024/03/14 20:31:40;;;;;;;73.20;38.60;;;;;;;4.65;79.63;98781.86;226748;1272;22530;-80
2024/03/14 20:36:45;;;;;;;67.90;38.40;;;;;;;4.58;79.71;98788.09;226752;1272;22589;-80
2024/03/14 20:41:48;;;;;;;67.90;37.50;;;;;;;4.52;79.85;98783.11;226740;1272;22533;-80
2024/03/14 20:46:53;;;;;;;74.00;39.80;;;;;;;4.45;79.76;98781.27;226750;1275;22540;-80
2024/03/14 20:51:59;;;;;;;77.20;40.10;;;;;;;4.34;79.78;98780.73;226738;1275;23292;-81
2024/03/14 20:57:04;;;;;;;81.60;41.90;;;;;;;4.24;80.04;98779.94;226744;1274;22719;-80
2024/03/14 21:02:08;;;;;;;87.30;46.40;;;;;;;4.16;80.26;98781.13;226809;1272;22540;-80
2024/03/14 21:07:10;;;;;;;86.60;47.70;;;;;;;4.08;80.34;98783.42;226739;1272;22532;-81
2024/03/14 21:12:13;;;;;;;99.10;51.00;;;;;;;4.02;80.67;98781.61;226783;1272;22636;-80
2024/03/14 21:17:16;;;;;;;97.90;53.30;;;;;;;3.96;80.73;98788.95;226775;1272;22552;-80
2024/03/14 21:22:18;;;;;;;100.60;53.20;;;;;;;3.91;80.76;98788.25;226714;1269;22607;-80
2024/03/14 21:27:21;;;;;;;86.90;45.00;;;;;;;3.86;81.08;98785.36;226661;1272;22531;-80
2024/03/14 21:32:24;;;;;;;80.20;43.20;;;;;;;3.90;81.82;98786.38;226606;1275;22544;-80
2024/03/14 21:37:26;;;;;;;75.30;40.90;;;;;;;3.98;82.01;98785.41;226703;1272;22537;-80
2024/03/14 21:42:28;;;;;;;74.30;40.30;;;;;;;4.02;82.04;98791.81;226700;1272;22559;-81
2024/03/14 21:47:31;;;;;;;76.10;40.40;;;;;;;4.03;82.01;98786.33;226657;1275;22568;-81
2024/03/14 21:52:33;;;;;;;71.80;39.10;;;;;;;3.98;81.97;98791.02;226624;1273;22552;-81
2024/03/14 21:57:36;;;;;;;69.20;37.20;;;;;;;3.89;81.72;98793.60;226721;1275;22562;-81
2024/03/14 22:02:38;;;;;;;71.00;38.50;;;;;;;3.79;81.83;98796.16;226657;1272;25904;-80
2024/03/14 22:07:47;;;;;;;69.50;37.00;;;;;;;3.72;82.26;98792.80;226703;1275;22573;-81
2024/03/14 22:12:49;;;;;;;64.90;35.70;;;;;;;3.68;82.27;98788.31;226657;1273;25574;-81
2024/03/14 22:17:54;;;;;;;69.90;38.20;;;;;;;3.63;82.39;98786.05;226665;1269;25242;-80
2024/03/14 22:22:56;;;;;;;66.30;36.50;;;;;;;3.57;82.49;98785.72;226644;1272;22946;-80
2024/03/14 22:27:59;;;;;;;64.70;38.20;;;;;;;3.61;83.33;98786.16;226659;1275;22524;-80
2024/03/14 22:33:01;;;;;;;59.00;34.00;;;;;;;3.69;83.42;98782.26;226662;1266;22534;-80
2024/03/14 22:38:03;;;;;;;65.90;37.40;;;;;;;3.70;83.55;98775.21;226665;1274;22567;-81
2024/03/14 22:43:08;;;;;;;61.80;35.90;;;;;;;3.68;83.30;98774.56;226572;1275;22530;-80
2024/03/14 22:48:13;;;;;;;65.30;37.40;;;;;;;3.62;83.35;98767.81;226649;1275;22796;-80
2024/03/14 22:53:16;;;;;;;68.80;38.70;;;;;;;3.53;83.23;98764.80;226648;1274;22530;-80
2024/03/14 22:58:18;;;;;;;69.10;39.80;;;;;;;3.43;83.30;98762.84;226565;1275;22546;-80
2024/03/14 23:03:20;;;;;;;71.10;39.30;;;;;;;3.33;83.40;98757.14;226610;1275;22540;-80
2024/03/14 23:08:25;;;;;;;78.00;42.80;;;;;;;3.23;83.50;98755.46;226543;1275;24234;-80
2024/03/14 23:13:27;;;;;;;75.50;43.00;;;;;;;3.15;83.49;98759.29;226712;1270;23392;-80
2024/03/14 23:18:31;;;;;;;78.90;43.30;;;;;;;3.07;83.73;98758.47;226708;1275;22548;-80
2024/03/14 23:23:34;;;;;;;66.30;38.00;;;;;;;3.02;83.96;98758.27;226705;1275;22556;-80